Time;durP1;ratioP1;P1;durP2;ratioP2;P2;SDS_P1;SDS_P2;PMS_P1;PMS_P2;Temp;Humidity;BMP_temperature;BMP_pressure;BME280_temperature;BME280_humidity;BME280_pressure;Samples;Min_cycle;Max_cycle;Signal;HPM_P1;HPM_P2
2024/01/25 00:01:10;;;;;;;8.90;7.83;;;;;;;21.35;27.09;95553.63;6230797;27;109287;-60
2024/01/25 00:04:13;;;;;;;7.90;7.10;;;;;;;21.33;27.46;95571.75;6222644;27;109075;-60
2024/01/25 00:07:17;;;;;;;7.70;7.00;;;;;;;21.36;26.98;95568.53;6212482;27;109114;-59
2024/01/25 00:10:22;;;;;;;8.03;7.00;;;;;;;21.34;27.18;95565.38;6218563;27;109361;-59
2024/01/25 00:13:25;;;;;;;7.90;7.20;;;;;;;21.32;27.27;95554.19;6223969;28;109284;-59
2024/01/25 00:16:28;;;;;;;9.13;7.53;;;;;;;21.36;27.09;95531.25;6235176;27;109163;-59
2024/01/25 00:19:31;;;;;;;8.00;7.20;;;;;;;21.33;27.04;95494.53;6235379;28;110093;-59
2024/01/25 00:22:34;;;;;;;7.73;7.03;;;;;;;21.35;27.24;95473.00;6212060;27;109123;-59
2024/01/25 00:25:39;;;;;;;7.97;7.17;;;;;;;21.32;27.01;95463.69;6234982;27;109405;-59
2024/01/25 00:28:42;;;;;;;8.83;7.47;;;;;;;21.32;26.99;95461.03;6233933;27;110094;-58
2024/01/25 00:31:45;;;;;;;7.60;6.77;;;;;;;21.34;27.17;95456.22;6209562;27;109653;-59
2024/01/25 00:34:48;;;;;;;7.57;6.87;;;;;;;21.33;27.14;95465.25;6208946;28;109586;-58
2024/01/25 00:37:52;;;;;;;8.10;7.33;;;;;;;21.32;27.27;95469.00;6214522;28;109192;-58
2024/01/25 00:40:57;;;;;;;6.97;6.27;;;;;;;21.33;27.02;95464.47;6223110;28;108984;-58
2024/01/25 00:44:01;;;;;;;7.43;6.73;;;;;;;21.32;27.20;95442.38;6223388;27;109056;-58
2024/01/25 00:47:04;;;;;;;7.70;7.00;;;;;;;21.30;26.98;95428.59;6223180;27;109313;-59
2024/01/25 00:50:08;;;;;;;7.00;6.30;;;;;;;21.31;27.31;95430.16;6232527;28;109207;-59
2024/01/25 00:53:12;;;;;;;7.20;6.50;;;;;;;21.30;27.17;95433.13;6226700;27;110122;-60
2024/01/25 00:56:17;;;;;;;7.60;6.80;;;;;;;21.33;27.16;95443.19;6222306;27;109195;-58
2024/01/25 00:59:21;;;;;;;7.50;6.80;;;;;;;21.33;27.16;95454.63;6234064;28;110145;-58
2024/01/25 01:02:26;;;;;;;6.20;5.70;;;;;;;21.33;27.26;95462.59;6233891;27;109072;-58
2024/01/25 01:05:29;;;;;;;7.13;6.43;;;;;;;21.33;27.32;95459.16;6231945;28;109283;-58
2024/01/25 01:08:33;;;;;;;7.10;6.50;;;;;;;21.33;27.18;95475.91;6211998;28;109189;-58
2024/01/25 01:11:38;;;;;;;6.63;6.00;;;;;;;21.31;26.97;95470.09;6209079;28;109390;-58
2024/01/25 01:14:41;;;;;;;6.33;5.77;;;;;;;21.31;26.88;95462.09;6231119;27;109108;-59
2024/01/25 01:17:44;;;;;;;7.03;6.33;;;;;;;21.32;27.06;95446.91;6202440;28;109204;-61
2024/01/25 01:20:48;;;;;;;6.73;6.10;;;;;;;21.28;26.89;95424.63;6232695;27;109013;-61
2024/01/25 01:23:51;;;;;;;6.50;5.90;;;;;;;21.31;27.01;95435.50;6226319;27;109374;-62
2024/01/25 01:26:56;;;;;;;6.80;6.17;;;;;;;21.31;26.92;95416.06;6214190;28;109285;-61
2024/01/25 01:29:59;;;;;;;5.93;5.37;;;;;;;21.29;27.14;95413.69;6223815;27;109107;-61
2024/01/25 01:33:02;;;;;;;6.57;5.87;;;;;;;21.30;26.97;95415.28;6233121;27;109296;-61
2024/01/25 01:36:05;;;;;;;6.00;5.40;;;;;;;21.30;27.17;95404.63;6222623;27;110017;-61
2024/01/25 01:39:08;;;;;;;6.83;6.23;;;;;;;21.29;27.29;95404.91;6220587;28;109132;-60
2024/01/25 01:42:13;;;;;;;6.03;5.53;;;;;;;21.29;27.33;95392.41;6207141;27;109141;-61
2024/01/25 01:45:16;;;;;;;6.37;5.70;;;;;;;21.32;27.12;95393.69;6232993;27;111081;-60
2024/01/25 01:48:19;;;;;;;5.87;5.13;;;;;;;21.32;27.35;95402.47;6233118;27;109202;-60
2024/01/25 01:51:22;;;;;;;6.13;5.53;;;;;;;21.31;27.26;95392.09;6229368;27;108819;-60
2024/01/25 01:54:26;;;;;;;6.23;5.63;;;;;;;21.32;27.18;95375.06;6226705;27;109580;-61
2024/01/25 01:57:31;;;;;;;5.90;5.30;;;;;;;21.33;27.13;95364.13;6237248;27;109274;-60
2024/01/25 02:00:35;;;;;;;5.70;5.20;;;;;;;21.31;27.25;95366.28;6230267;28;109277;-60
2024/01/25 02:03:38;;;;;;;5.87;5.27;;;;;;;21.33;27.13;95363.31;6222930;27;110240;-59
2024/01/25 02:06:43;;;;;;;5.40;4.90;;;;;;;21.30;26.81;95371.91;6226515;27;110029;-60
2024/01/25 02:09:47;;;;;;;6.00;5.47;;;;;;;21.32;27.01;95386.50;6233412;27;110152;-60
2024/01/25 02:12:51;;;;;;;6.80;6.10;;;;;;;21.32;27.11;95373.19;6233113;27;110260;-61
2024/01/25 02:15:54;;;;;;;6.10;5.50;;;;;;;21.33;27.09;95358.00;6210234;27;110050;-60
2024/01/25 02:18:58;;;;;;;6.77;6.07;;;;;;;21.32;27.17;95372.41;6216444;28;109073;-61
2024/01/25 02:22:05;;;;;;;5.90;5.40;;;;;;;21.31;26.96;95386.78;6213120;28;110054;-60
2024/01/25 02:25:10;;;;;;;6.10;5.50;;;;;;;21.33;26.85;95380.09;6214162;28;109142;-61
2024/01/25 02:28:13;;;;;;;7.10;6.40;;;;;;;21.32;27.20;95378.50;6206130;28;109046;-61
2024/01/25 02:31:16;;;;;;;6.80;5.87;;;;;;;21.31;27.06;95368.94;6226480;27;109154;-59
2024/01/25 02:34:20;;;;;;;5.50;5.00;;;;;;;21.31;27.05;95354.84;6225291;28;109030;-61
2024/01/25 02:37:23;;;;;;;5.70;5.20;;;;;;;21.32;27.06;95365.19;6203064;28;109218;-59
2024/01/25 02:40:27;;;;;;;6.10;5.50;;;;;;;21.29;26.87;95352.47;6229986;28;109185;-59
2024/01/25 02:43:30;;;;;;;6.33;5.67;;;;;;;21.32;26.76;95361.75;6236515;27;109067;-60
2024/01/25 02:46:33;;;;;;;5.53;5.03;;;;;;;21.29;27.24;95355.13;6235478;28;110216;-60
2024/01/25 02:49:36;;;;;;;6.80;5.70;;;;;;;21.31;27.24;95352.19;6225841;27;109170;-60
2024/01/25 02:52:40;;;;;;;6.57;5.60;;;;;;;21.31;26.94;95342.31;6237193;27;109121;-60
2024/01/25 02:55:45;;;;;;;5.80;5.30;;;;;;;21.32;27.09;95351.09;6217275;27;110311;-60
2024/01/25 02:58:48;;;;;;;6.30;5.70;;;;;;;21.30;26.82;95351.38;6231011;27;109110;-60
2024/01/25 03:01:51;;;;;;;6.23;5.63;;;;;;;21.33;26.80;95344.69;6226147;27;109211;-60
2024/01/25 03:04:54;;;;;;;7.47;5.77;;;;;;;21.30;27.26;95332.75;6228592;27;109090;-60
2024/01/25 03:07:57;;;;;;;5.80;5.30;;;;;;;21.32;26.99;95343.09;6235970;27;109376;-60
2024/01/25 03:11:03;;;;;;;5.90;5.30;;;;;;;21.31;26.96;95347.66;6210460;27;109076;-60
2024/01/25 03:14:06;;;;;;;6.10;5.50;;;;;;;21.31;27.10;95331.69;6214719;28;110130;-59
2024/01/25 03:17:09;;;;;;;5.67;5.00;;;;;;;21.31;27.19;95337.00;6211952;28;109309;-60
2024/01/25 03:20:12;;;;;;;5.67;5.17;;;;;;;21.34;27.08;95343.59;6215793;28;109178;-59
2024/01/25 03:23:16;;;;;;;6.30;5.23;;;;;;;21.32;27.03;95330.59;6208043;28;110077;-59
2024/01/25 03:26:20;;;;;;;5.60;5.10;;;;;;;21.32;27.08;95346.56;6218391;27;110236;-59
2024/01/25 03:29:23;;;;;;;5.70;5.20;;;;;;;21.30;27.10;95335.41;6219176;28;109195;-59
2024/01/25 03:32:26;;;;;;;6.03;5.43;;;;;;;21.32;26.97;95335.91;6232510;27;109190;-60
2024/01/25 03:35:31;;;;;;;5.70;5.20;;;;;;;21.30;27.01;95351.38;6225120;27;109468;-61
2024/01/25 03:38:34;;;;;;;6.33;5.70;;;;;;;21.30;26.88;95353.25;6218047;27;110090;-59
2024/01/25 03:41:39;;;;;;;5.80;5.27;;;;;;;21.30;27.00;95343.41;6212796;27;109243;-59
2024/01/25 03:44:42;;;;;;;6.17;5.10;;;;;;;21.31;27.13;95323.69;6216875;28;109399;-59
2024/01/25 03:47:45;;;;;;;6.20;5.60;;;;;;;21.29;26.97;95307.22;6218331;27;112090;-59
2024/01/25 03:50:49;;;;;;;5.30;4.80;;;;;;;21.30;27.17;95300.03;6229520;27;109749;-59
2024/01/25 03:53:52;;;;;;;5.93;5.37;;;;;;;21.30;27.21;95314.13;6224573;27;110108;-59
2024/01/25 03:56:57;;;;;;;5.23;4.73;;;;;;;21.32;27.39;95311.97;6206889;27;110422;-59
2024/01/25 04:00:00;;;;;;;6.13;5.53;;;;;;;21.33;27.19;95294.91;6223109;28;109602;-58
2024/01/25 04:03:03;;;;;;;5.63;4.97;;;;;;;21.33;27.18;95278.94;6233456;27;109496;-58
2024/01/25 04:06:06;;;;;;;5.53;4.97;;;;;;;21.33;27.04;95300.22;6221446;27;110327;-57
2024/01/25 04:09:10;;;;;;;5.20;4.70;;;;;;;21.33;27.39;95265.63;6212833;28;109094;-58
2024/01/25 04:12:14;;;;;;;5.87;4.70;;;;;;;21.19;27.73;95278.94;6221225;27;109273;-61
2024/01/25 04:15:17;;;;;;;4.90;4.40;;;;;;;21.05;28.04;95270.13;6233623;27;109128;-61
2024/01/25 04:18:20;;;;;;;4.83;4.13;;;;;;;21.06;28.19;95261.06;6226056;28;111301;-61
2024/01/25 04:21:24;;;;;;;9.33;4.70;;;;;;;21.11;28.16;95276.16;6224804;27;109012;-61
2024/01/25 04:24:27;;;;;;;8.50;4.20;;;;;;;21.30;28.31;95268.09;6237832;27;110292;-60
2024/01/25 04:27:31;;;;;;;4.40;4.00;;;;;;;21.42;28.10;95271.84;6216493;27;109280;-60
2024/01/25 04:30:34;;;;;;;6.30;3.80;;;;;;;21.52;28.15;95270.88;6216789;27;109003;-60
2024/01/25 04:33:40;;;;;;;6.47;4.10;;;;;;;21.52;28.68;95271.66;6220685;27;109243;-60
2024/01/25 04:36:47;;;;;;;4.60;3.90;;;;;;;21.63;28.55;95276.78;6220891;27;109784;-60
2024/01/25 04:39:50;;;;;;;4.13;3.60;;;;;;;21.63;28.77;95271.44;6217739;28;110024;-60
2024/01/25 04:42:55;;;;;;;4.30;3.40;;;;;;;21.65;28.79;95287.91;6224808;27;109038;-61
2024/01/25 04:45:58;;;;;;;5.23;3.80;;;;;;;21.47;29.29;95282.41;6215325;28;109357;-60
2024/01/25 04:49:02;;;;;;;5.60;3.67;;;;;;;20.54;29.66;95297.53;6222112;27;110273;-63
2024/01/25 04:52:06;;;;;;;4.50;4.10;;;;;;;19.96;29.30;95302.28;6234882;27;109278;-61
2024/01/25 04:55:10;;;;;;;8.57;4.40;;;;;;;19.39;29.71;95301.34;6218533;27;112632;-62
2024/01/25 04:58:14;;;;;;;5.90;4.40;;;;;;;20.17;29.24;95308.94;6227585;28;110252;-60
2024/01/25 05:01:17;;;;;;;4.10;3.40;;;;;;;20.63;28.71;95310.94;6232275;27;109456;-61
2024/01/25 05:04:21;;;;;;;4.07;3.27;;;;;;;20.91;28.46;95309.19;6228330;27;109048;-60
2024/01/25 05:07:24;;;;;;;5.07;3.73;;;;;;;21.11;28.17;95308.88;6226061;27;109238;-60
2024/01/25 05:10:32;;;;;;;4.30;2.93;;;;;;;21.31;28.62;95329.00;6231787;27;109095;-59
2024/01/25 05:13:37;;;;;;;4.70;3.83;;;;;;;21.37;28.24;95332.41;6234117;27;110284;-59
2024/01/25 05:16:40;;;;;;;4.70;3.50;;;;;;;21.34;28.62;95338.28;6223356;28;109884;-61
2024/01/25 05:19:43;;;;;;;4.83;3.70;;;;;;;21.30;28.75;95355.94;6233870;27;109222;-62
2024/01/25 05:22:46;;;;;;;4.00;3.20;;;;;;;21.27;28.83;95359.97;6233758;27;109037;-61
2024/01/25 05:25:49;;;;;;;3.40;3.03;;;;;;;21.27;28.74;95365.28;6234317;28;110279;-61
2024/01/25 05:28:54;;;;;;;4.23;3.30;;;;;;;21.26;29.13;95366.38;6222321;27;109810;-62
2024/01/25 05:31:57;;;;;;;4.10;3.10;;;;;;;21.17;28.93;95352.13;6217716;27;109298;-60
2024/01/25 05:35:00;;;;;;;4.43;3.27;;;;;;;21.07;29.19;95357.66;6231970;28;110189;-61
2024/01/25 05:38:03;;;;;;;3.73;2.90;;;;;;;21.00;29.44;95352.66;6233919;27;110240;-61
2024/01/25 05:41:07;;;;;;;3.63;2.77;;;;;;;20.96;29.37;95356.19;6224551;27;110309;-61
2024/01/25 05:44:11;;;;;;;3.93;2.80;;;;;;;20.93;29.14;95368.22;6233610;27;109119;-61
2024/01/25 05:47:14;;;;;;;3.07;2.77;;;;;;;20.92;29.64;95375.41;6233873;27;110567;-61
2024/01/25 05:50:17;;;;;;;3.10;2.80;;;;;;;20.92;29.44;95370.06;6228398;28;110265;-62
2024/01/25 05:53:21;;;;;;;4.33;2.73;;;;;;;20.93;29.20;95376.19;6229286;27;109277;-62
2024/01/25 05:56:25;;;;;;;3.10;2.50;;;;;;;20.91;29.51;95384.47;6233949;27;109131;-60
2024/01/25 05:59:29;;;;;;;3.83;2.53;;;;;;;20.91;29.46;95381.81;6232197;27;109693;-60
2024/01/25 06:02:33;;;;;;;3.10;2.13;;;;;;;20.91;29.14;95381.81;6224926;27;110386;-60
2024/01/25 06:05:37;;;;;;;3.20;2.43;;;;;;;20.91;29.09;95387.13;6238041;27;109230;-59
2024/01/25 06:08:40;;;;;;;2.93;2.50;;;;;;;20.90;29.09;95384.75;6237518;27;113075;-60
2024/01/25 06:11:44;;;;;;;3.10;2.10;;;;;;;20.88;29.38;95386.91;6237431;27;109262;-60
2024/01/25 06:14:49;;;;;;;2.40;2.10;;;;;;;20.86;29.07;95386.41;6226633;27;109111;-60
2024/01/25 06:17:52;;;;;;;3.20;2.17;;;;;;;20.84;29.17;95383.25;6237308;27;109099;-60
2024/01/25 06:20:55;;;;;;;3.20;2.53;;;;;;;20.83;28.98;95385.09;6237607;27;109069;-59
2024/01/25 06:23:58;;;;;;;3.30;1.97;;;;;;;20.84;29.21;95397.34;6233004;28;110473;-60
2024/01/25 06:27:01;;;;;;;3.50;2.67;;;;;;;20.81;28.94;95395.25;6230994;27;109016;-59
2024/01/25 06:30:07;;;;;;;3.10;2.20;;;;;;;20.80;28.92;95393.66;6236408;27;109184;-59
2024/01/25 06:33:10;;;;;;;3.20;2.23;;;;;;;20.80;28.86;95391.00;6237428;27;109571;-60
2024/01/25 06:36:15;;;;;;;3.60;2.37;;;;;;;20.80;29.13;95372.38;6227931;27;109428;-59
2024/01/25 06:39:18;;;;;;;2.10;1.90;;;;;;;20.79;29.00;95381.44;6237140;27;108997;-59
2024/01/25 06:42:21;;;;;;;3.03;2.17;;;;;;;20.81;29.19;95379.28;6237127;27;109081;-60
2024/01/25 06:45:26;;;;;;;2.60;1.93;;;;;;;20.82;29.04;95380.06;6236764;27;109255;-59
2024/01/25 06:48:29;;;;;;;2.47;2.00;;;;;;;20.82;29.09;95362.25;6225548;27;109218;-59
2024/01/25 06:51:33;;;;;;;2.40;1.93;;;;;;;20.83;28.96;95360.38;6237066;27;109076;-59
2024/01/25 06:54:36;;;;;;;2.53;2.03;;;;;;;20.81;28.76;95365.19;6236678;27;109053;-60
2024/01/25 06:57:39;;;;;;;2.47;1.90;;;;;;;20.80;29.03;95361.75;6236794;28;109501;-59
2024/01/25 07:00:46;;;;;;;3.10;1.90;;;;;;;20.79;28.92;95354.06;6226128;27;110071;-60
2024/01/25 07:03:50;;;;;;;3.03;2.23;;;;;;;20.77;28.95;95372.97;6236737;27;110002;-59
2024/01/25 07:06:54;;;;;;;2.10;1.57;;;;;;;20.77;28.98;95365.00;6236357;27;109028;-58
2024/01/25 07:09:58;;;;;;;3.30;1.97;;;;;;;20.76;28.88;95366.06;6228140;27;110013;-59
2024/01/25 07:13:01;;;;;;;2.07;1.60;;;;;;;20.79;28.88;95380.66;6234205;27;109078;-56
2024/01/25 07:16:06;;;;;;;2.23;1.80;;;;;;;20.78;29.03;95385.19;6236421;27;109014;-57
2024/01/25 07:19:09;;;;;;;2.90;1.93;;;;;;;20.79;28.97;95383.31;6236145;27;109122;-58
2024/01/25 07:22:15;;;;;;;2.90;2.00;;;;;;;20.81;29.01;95378.50;6225935;27;109014;-58
2024/01/25 07:25:18;;;;;;;2.43;1.77;;;;;;;20.80;28.68;95388.34;6236085;27;109232;-58
2024/01/25 07:28:21;;;;;;;1.97;1.70;;;;;;;20.82;28.78;95396.81;6235825;27;109049;-57
2024/01/25 07:31:27;;;;;;;2.83;1.70;;;;;;;20.81;28.88;95399.78;6235618;27;110236;-58
2024/01/25 07:34:30;;;;;;;2.83;1.87;;;;;;;21.23;28.27;95406.09;6225832;27;108867;-58
2024/01/25 07:37:33;;;;;;;2.53;1.73;;;;;;;21.47;28.37;95410.19;6236077;27;109044;-58
2024/01/25 07:40:36;;;;;;;2.83;1.80;;;;;;;21.61;28.38;95414.75;6235814;27;109210;-57
2024/01/25 07:43:39;;;;;;;3.57;1.77;;;;;;;21.68;27.83;95401.88;6230610;27;109093;-57
2024/01/25 07:46:44;;;;;;;2.43;1.60;;;;;;;21.75;28.02;95420.91;6230526;27;110019;-57
2024/01/25 07:49:47;;;;;;;2.90;1.73;;;;;;;21.75;27.91;95421.69;6235558;27;109128;-59
2024/01/25 07:52:50;;;;;;;2.17;1.73;;;;;;;21.79;28.00;95435.22;6236434;28;110105;-58
2024/01/25 07:55:54;;;;;;;4.37;1.90;;;;;;;21.83;28.05;95430.91;6224675;27;109089;-58
2024/01/25 07:58:59;;;;;;;3.27;1.70;;;;;;;21.84;28.05;95424.50;6235691;28;110069;-58
2024/01/25 08:02:04;;;;;;;5.17;1.70;;;;;;;21.86;28.06;95441.00;6235330;27;110227;-57
2024/01/25 08:05:08;;;;;;;2.13;1.70;;;;;;;21.90;28.14;95441.19;6236096;27;110256;-59
2024/01/25 08:08:11;;;;;;;2.00;1.50;;;;;;;21.89;28.34;95429.75;6224575;27;109038;-58
2024/01/25 08:11:18;;;;;;;2.70;1.87;;;;;;;21.83;28.16;95438.09;6235220;27;109043;-58
2024/01/25 08:14:21;;;;;;;2.50;1.77;;;;;;;21.79;28.25;95440.53;6235509;27;110036;-58
2024/01/25 08:17:26;;;;;;;2.10;1.60;;;;;;;21.77;28.45;95429.41;6232913;27;108975;-59
2024/01/25 08:20:29;;;;;;;2.73;1.77;;;;;;;21.75;28.54;95434.22;6228721;27;109211;-58
2024/01/25 08:23:32;;;;;;;3.20;1.57;;;;;;;21.74;27.95;95437.97;6235287;27;110220;-58
2024/01/25 08:26:35;;;;;;;2.63;1.87;;;;;;;21.73;28.15;95426.53;6234970;27;109255;-59
2024/01/25 08:29:39;;;;;;;2.20;1.67;;;;;;;21.72;28.43;95430.28;6224162;27;109095;-59
2024/01/25 08:32:44;;;;;;;2.83;1.40;;;;;;;21.74;28.41;95433.44;6233986;27;109141;-59
2024/01/25 08:35:47;;;;;;;2.77;1.50;;;;;;;21.73;28.13;95433.75;6234648;27;109099;-58
2024/01/25 08:38:50;;;;;;;1.93;1.47;;;;;;;21.71;28.40;95428.72;6234717;27;109178;-58
2024/01/25 08:41:53;;;;;;;2.37;1.77;;;;;;;21.71;28.25;95431.38;6225000;27;109707;-58
2024/01/25 08:44:56;;;;;;;2.87;1.70;;;;;;;21.75;27.84;95439.56;6234994;27;109110;-58
2024/01/25 08:48:00;;;;;;;2.43;1.57;;;;;;;21.73;28.12;95431.06;6234666;27;109781;-57
2024/01/25 08:51:04;;;;;;;3.00;1.87;;;;;;;21.72;28.28;95442.81;6235027;27;111242;-58
2024/01/25 08:54:08;;;;;;;2.30;1.60;;;;;;;21.75;28.21;95429.69;6223160;27;109013;-58
2024/01/25 08:57:11;;;;;;;2.40;1.53;;;;;;;21.74;28.10;95432.66;6234110;27;109613;-58
2024/01/25 09:00:15;;;;;;;2.03;1.33;;;;;;;21.75;27.94;95444.88;6234233;27;109103;-57
2024/01/25 09:03:19;;;;;;;1.90;1.50;;;;;;;21.76;27.93;95435.81;6228248;27;109046;-58
2024/01/25 09:06:24;;;;;;;2.50;1.40;;;;;;;21.78;28.03;95430.97;6229521;28;108874;-57
2024/01/25 09:09:27;;;;;;;2.20;1.50;;;;;;;21.80;28.02;95426.13;6234012;27;109182;-60
2024/01/25 09:12:30;;;;;;;2.47;1.67;;;;;;;21.80;28.09;95431.47;6234247;27;109287;-58
2024/01/25 09:15:33;;;;;;;2.00;1.60;;;;;;;21.80;27.59;95431.47;6223869;27;109524;-57
2024/01/25 09:18:38;;;;;;;2.63;1.87;;;;;;;21.83;27.93;95425.56;6234551;27;110077;-58
2024/01/25 09:21:41;;;;;;;3.50;1.50;;;;;;;21.81;28.03;95422.38;6234679;27;111795;-58
2024/01/25 09:24:44;;;;;;;2.10;1.60;;;;;;;21.82;28.00;95424.00;6234258;27;109111;-57
2024/01/25 09:27:47;;;;;;;3.90;1.70;;;;;;;21.81;27.91;95422.38;6223246;27;109234;-59
2024/01/25 09:30:51;;;;;;;2.97;1.60;;;;;;;21.80;27.78;95428.81;6234359;27;109046;-61
2024/01/25 09:33:56;;;;;;;2.23;1.50;;;;;;;21.77;27.59;95419.53;6233367;27;109475;-59
2024/01/25 09:36:59;;;;;;;2.07;1.50;;;;;;;21.78;27.84;95415.00;6229373;27;111597;-60
2024/01/25 09:40:03;;;;;;;2.10;1.73;;;;;;;21.78;27.90;95415.00;6227906;27;109365;-60
2024/01/25 09:43:07;;;;;;;1.80;1.20;;;;;;;21.80;27.52;95424.25;6233897;27;109883;-60
2024/01/25 09:46:15;;;;;;;2.70;1.77;;;;;;;21.77;27.73;95421.41;6233480;27;109036;-60
2024/01/25 09:49:20;;;;;;;2.67;1.57;;;;;;;21.76;28.02;95411.84;6222452;27;109193;-59
2024/01/25 09:52:25;;;;;;;4.03;1.60;;;;;;;21.74;27.61;95414.00;6233679;27;109057;-61
2024/01/25 09:55:31;;;;;;;2.57;1.63;;;;;;;21.73;27.69;95404.44;6233960;27;110011;-60
2024/01/25 09:58:40;;;;;;;1.77;1.10;;;;;;;21.73;27.92;95399.91;6233378;27;109843;-59
2024/01/25 10:01:43;;;;;;;2.20;1.80;;;;;;;21.74;27.80;95396.16;6222922;27;109433;-60
2024/01/25 10:04:51;;;;;;;1.90;1.50;;;;;;;21.71;28.17;95390.63;6232879;27;110247;-60
2024/01/25 10:08:00;;;;;;;1.97;1.33;;;;;;;21.74;27.75;95387.38;6233850;27;110304;-59
2024/01/25 10:11:04;;;;;;;1.97;1.40;;;;;;;21.76;27.88;95387.88;6232352;27;110106;-60
2024/01/25 10:14:08;;;;;;;2.10;1.40;;;;;;;21.73;27.71;95369.81;6225210;27;109222;-60
2024/01/25 10:17:11;;;;;;;3.20;1.50;;;;;;;21.76;27.89;95361.22;6208663;28;110035;-59
2024/01/25 10:20:17;;;;;;;2.23;1.40;;;;;;;21.75;27.67;95349.78;6217418;28;110289;-60
2024/01/25 10:23:21;;;;;;;2.27;1.57;;;;;;;21.76;27.66;95347.91;6223244;27;109156;-61
2024/01/25 10:26:27;;;;;;;2.17;1.50;;;;;;;21.75;27.83;95349.78;6232715;27;108961;-63
2024/01/25 10:29:30;;;;;;;2.30;1.50;;;;;;;21.78;27.68;95343.06;6232998;27;109251;-59
2024/01/25 10:32:34;;;;;;;2.63;1.73;;;;;;;21.78;27.80;95337.75;6233377;27;110502;-59
2024/01/25 10:35:39;;;;;;;2.33;1.60;;;;;;;21.80;27.57;95331.03;6221587;27;109901;-60
2024/01/25 10:38:45;;;;;;;3.00;1.57;;;;;;;21.80;27.88;95338.22;6233431;27;109534;-60
2024/01/25 10:41:50;;;;;;;4.63;1.90;;;;;;;21.79;27.85;95331.31;6232815;27;109179;-61
2024/01/25 10:44:54;;;;;;;2.50;1.50;;;;;;;21.79;27.90;95344.66;6232518;27;109051;-61
2024/01/25 10:47:59;;;;;;;1.97;1.53;;;;;;;21.80;27.57;95336.34;6223355;27;109221;-60
2024/01/25 10:51:04;;;;;;;1.90;1.30;;;;;;;21.79;27.84;95334.78;6236672;27;109051;-61
2024/01/25 10:54:08;;;;;;;1.70;1.10;;;;;;;21.75;27.91;95322.34;6237078;27;109084;-61
2024/01/25 10:57:11;;;;;;;1.97;1.43;;;;;;;21.76;27.79;95315.94;6232231;27;110069;-62
2024/01/25 11:00:16;;;;;;;3.60;1.60;;;;;;;21.76;27.42;95307.94;6232956;27;109448;-61
2024/01/25 11:03:20;;;;;;;2.20;1.33;;;;;;;21.77;27.74;95312.19;6236973;27;109366;-61
2024/01/25 11:06:25;;;;;;;4.10;1.60;;;;;;;21.76;27.66;95318.59;6236045;27;109254;-61
2024/01/25 11:09:28;;;;;;;2.00;1.67;;;;;;;21.77;27.87;95309.53;6227239;27;109790;-60
2024/01/25 11:12:31;;;;;;;1.87;1.13;;;;;;;21.79;27.52;95302.81;6237032;27;110962;-61
2024/01/25 11:15:37;;;;;;;2.80;1.43;;;;;;;21.76;28.00;95294.63;6236849;27;110097;-61
2024/01/25 11:18:49;;;;;;;2.97;1.70;;;;;;;21.77;28.06;95288.22;6236652;27;109005;-61
2024/01/25 11:21:54;;;;;;;2.50;1.40;;;;;;;21.74;28.02;95289.59;6226374;27;108837;-60
2024/01/25 11:24:57;;;;;;;2.57;1.57;;;;;;;21.75;27.87;95277.06;6236230;27;109264;-60
2024/01/25 11:28:03;;;;;;;2.50;1.47;;;;;;;21.70;27.48;95272.66;6236827;27;109998;-61
2024/01/25 11:31:06;;;;;;;2.80;1.50;;;;;;;21.71;27.99;95276.88;6230853;27;109618;-61
2024/01/25 11:34:12;;;;;;;3.27;1.50;;;;;;;21.70;27.83;95279.84;6231043;27;109468;-62
2024/01/25 11:37:17;;;;;;;2.10;1.40;;;;;;;21.68;28.00;95271.38;6235538;27;109423;-62
2024/01/25 11:40:21;;;;;;;1.90;1.40;;;;;;;21.66;28.04;95276.97;6236164;27;109047;-61
2024/01/25 11:43:25;;;;;;;2.40;1.30;;;;;;;21.69;27.63;95276.41;6225803;27;109821;-60
2024/01/25 11:46:28;;;;;;;2.60;1.47;;;;;;;21.71;27.87;95295.53;6235974;27;109029;-60
2024/01/25 11:49:33;;;;;;;1.97;1.53;;;;;;;21.73;27.55;95287.25;6236085;27;109607;-60
2024/01/25 11:52:38;;;;;;;2.17;1.30;;;;;;;21.74;27.67;95288.81;6235753;27;109129;-60
2024/01/25 11:55:41;;;;;;;1.80;1.40;;;;;;;21.75;27.54;95290.38;6224880;27;109375;-61
2024/01/25 11:58:46;;;;;;;2.20;1.33;;;;;;;21.71;27.39;95279.53;6234993;27;110631;-59
2024/01/25 12:01:49;;;;;;;1.87;1.20;;;;;;;21.73;27.72;95277.38;6235401;27;110197;-60
2024/01/25 12:04:55;;;;;;;1.90;1.20;;;;;;;21.74;27.75;95283.50;6231563;27;109085;-60
2024/01/25 12:08:00;;;;;;;2.10;1.13;;;;;;;21.74;27.86;95278.94;6204604;28;109484;-59
2024/01/25 12:11:07;;;;;;;2.40;1.30;;;;;;;21.72;27.50;95286.44;6219960;28;109007;-59
2024/01/25 12:14:11;;;;;;;2.63;1.30;;;;;;;21.74;27.60;95275.50;6235413;27;110083;-59
2024/01/25 12:17:14;;;;;;;1.83;1.20;;;;;;;21.73;27.81;95268.59;6224088;27;110264;-60
2024/01/25 12:20:18;;;;;;;1.43;1.00;;;;;;;21.79;27.46;95262.84;6235545;27;110059;-59
2024/01/25 12:23:22;;;;;;;2.10;1.20;;;;;;;21.88;27.88;95256.88;6235372;27;108704;-60
2024/01/25 12:26:25;;;;;;;2.27;1.40;;;;;;;21.92;27.72;95252.50;6235058;27;109144;-59
2024/01/25 12:29:28;;;;;;;2.73;1.40;;;;;;;21.81;27.99;95247.34;6224716;27;109019;-61
2024/01/25 12:32:31;;;;;;;2.53;1.30;;;;;;;21.81;27.98;95225.25;6235506;27;110051;-61
2024/01/25 12:35:35;;;;;;;2.43;1.47;;;;;;;21.81;28.21;95230.59;6235421;27;110126;-60
2024/01/25 12:38:39;;;;;;;2.30;1.40;;;;;;;21.78;28.19;95231.97;6234423;27;109085;-60
2024/01/25 12:41:43;;;;;;;2.10;1.17;;;;;;;21.77;27.76;95233.06;6225096;27;109252;-60
2024/01/25 12:44:46;;;;;;;2.03;1.23;;;;;;;21.80;28.03;95226.34;6235083;27;109792;-60
2024/01/25 12:47:49;;;;;;;2.87;1.60;;;;;;;21.80;27.95;95218.34;6234806;27;109918;-60
2024/01/25 12:50:53;;;;;;;1.70;1.10;;;;;;;21.82;27.74;95210.88;6230206;27;109342;-59
2024/01/25 12:53:57;;;;;;;2.87;1.30;;;;;;;21.81;28.08;95217.28;6230764;27;109122;-60
2024/01/25 12:57:00;;;;;;;2.40;1.50;;;;;;;21.79;27.67;95198.13;6234801;27;108838;-59
2024/01/25 13:00:05;;;;;;;1.70;1.20;;;;;;;21.82;27.73;95192.22;6234823;27;109084;-59
2024/01/25 13:03:08;;;;;;;1.80;1.23;;;;;;;21.84;27.76;95182.06;6224110;27;110482;-60
2024/01/25 13:06:11;;;;;;;3.73;1.40;;;;;;;21.84;28.08;95171.41;6234860;27;110256;-61
2024/01/25 13:09:16;;;;;;;1.90;1.03;;;;;;;21.85;27.61;95177.56;6233868;27;109047;-61
2024/01/25 13:12:19;;;;;;;1.80;1.07;;;;;;;21.85;27.71;95162.34;6234513;27;110175;-60
2024/01/25 13:15:22;;;;;;;2.30;1.23;;;;;;;21.86;27.95;95174.59;6224165;27;111137;-60
2024/01/25 13:18:26;;;;;;;1.67;0.90;;;;;;;21.85;27.99;95194.31;6209826;28;109272;-60
2024/01/25 13:21:29;;;;;;;2.23;1.20;;;;;;;21.84;27.51;95183.94;6218880;28;110041;-60
2024/01/25 13:24:33;;;;;;;1.50;1.07;;;;;;;21.85;27.79;95193.53;6225622;27;110492;-60
2024/01/25 13:27:36;;;;;;;2.40;1.60;;;;;;;21.86;27.62;95197.78;6218522;28;110159;-59
2024/01/25 13:30:39;;;;;;;2.37;1.23;;;;;;;21.84;27.98;95191.94;6219385;27;109043;-59
2024/01/25 13:33:43;;;;;;;2.20;0.93;;;;;;;21.84;27.88;95203.38;6219635;28;109120;-59
2024/01/25 13:36:50;;;;;;;2.37;1.20;;;;;;;21.83;27.85;95188.47;6210103;28;110366;-59
2024/01/25 13:39:54;;;;;;;2.20;1.43;;;;;;;21.81;28.01;95185.31;6221062;28;109204;-59
2024/01/25 13:42:57;;;;;;;2.00;1.33;;;;;;;21.83;27.83;95180.50;6219683;28;109032;-60
2024/01/25 13:46:01;;;;;;;2.57;1.50;;;;;;;21.81;27.90;95179.97;6218338;28;109017;-60
2024/01/25 13:49:04;;;;;;;2.17;1.20;;;;;;;21.80;28.04;95179.19;6211556;28;108996;-60
2024/01/25 13:52:07;;;;;;;2.93;1.63;;;;;;;21.78;28.10;95178.69;6222311;28;110278;-59
2024/01/25 13:55:11;;;;;;;5.70;1.30;;;;;;;21.81;28.00;95185.31;6224246;28;109949;-59
2024/01/25 13:58:14;;;;;;;1.87;1.13;;;;;;;21.79;27.96;95201.59;6233564;28;110132;-60
2024/01/25 14:01:17;;;;;;;2.00;1.20;;;;;;;21.80;28.01;95207.69;6223521;27;110078;-60
2024/01/25 14:04:21;;;;;;;5.93;1.73;;;;;;;21.69;28.18;95201.81;6233945;27;110151;-61
2024/01/25 14:07:24;;;;;;;2.70;1.30;;;;;;;21.70;28.41;95198.06;6233498;27;109095;-59
2024/01/25 14:10:29;;;;;;;2.43;1.43;;;;;;;21.76;28.38;95210.19;6216201;27;109093;-59
2024/01/25 14:13:33;;;;;;;3.53;1.23;;;;;;;21.80;27.71;95219.16;6216731;28;109871;-59